Time;durP1;ratioP1;P1;durP2;ratioP2;P2;SDS_P1;SDS_P2;PMS_P1;PMS_P2;Temp;Humidity;BMP_temperature;BMP_pressure;BME280_temperature;BME280_humidity;BME280_pressure;Samples;Min_cycle;Max_cycle;Signal;HPM_P1;HPM_P2
2021/09/09 00:00:57;;;;;;;;;;;;;;;;;;8160493;28;20261;-71
2021/09/09 00:05:04;;;;;;;;;;;;;;;;;;8169908;28;19945;-71
2021/09/09 00:09:09;;;;;;;;;;;;;;;;;;8162067;28;20345;-72
2021/09/09 00:13:15;;;;;;;;;;;;;;;;;;8176145;28;20367;-72
2021/09/09 00:17:20;;;;;;;;;;;;;;;;;;8159788;28;20356;-72
2021/09/09 00:21:26;;;;;;;;;;;;;;;;;;8160105;28;20261;-72
2021/09/09 00:25:46;;;;;;;;;;;;;;;;;;8159866;28;20337;-72
2021/09/09 00:29:53;;;;;;;;;;;;;;;;;;8161301;28;20352;-72
2021/09/09 00:33:59;;;;;;;;;;;;;;;;;;8161447;28;20242;-72
2021/09/09 00:38:13;;;;;;;;;;;;;;;;;;8160522;28;20289;-72
2021/09/09 00:42:17;;;;;;;;;;;;;;;;;;8159574;28;20356;-72
2021/09/09 00:46:24;;;;;;;;;;;;;;;;;;8159059;28;20334;-72
2021/09/09 00:50:29;;;;;;;;;;;;;;;;;;8160027;28;20260;-72
2021/09/09 00:54:33;;;;;;;;;;;;;;;;;;8159115;28;20364;-72
2021/09/09 00:58:41;;;;;;;;;;;;;;;;;;8161410;28;20296;-72
2021/09/09 01:02:46;;;;;;;;;;;;;;;;;;8160302;28;20326;-72
2021/09/09 01:06:52;;;;;;;;;;;;;;;;;;8175363;28;19944;-72
2021/09/09 01:10:59;;;;;;;;;;;;;;;;;;8175114;28;20229;-72
2021/09/09 01:15:06;;;;;;;;;;;;;;;;;;8191259;28;19944;-72
2021/09/09 01:19:11;;;;;;;;;;;;;;;;;;8181561;28;19944;-72
2021/09/09 01:23:17;;;;;;;;;;;;;;;;;;8181712;28;20280;-72
2021/09/09 01:27:22;;;;;;;;;;;;;;;;;;8181726;28;20356;-72
2021/09/09 01:31:27;;;;;;;;;;;;;;;;;;8181674;28;19921;-72
2021/09/09 01:35:32;;;;;;;;;;;;;;;;;;8165270;28;20304;-72
2021/09/09 01:39:40;;;;;;;;;;;;;;;;;;8180958;28;20252;-72
2021/09/09 01:43:45;;;;;;;;;;;;;;;;;;8164644;28;20325;-72
2021/09/09 01:47:50;;;;;;;;;;;;;;;;;;8165213;28;20355;-72
2021/09/09 01:51:55;;;;;;;;;;;;;;;;;;8180846;28;19947;-72
2021/09/09 01:56:00;;;;;;;;;;;;;;;;;;8197851;28;19943;-72
2021/09/09 02:00:06;;;;;;;;;;;;;;;;;;8179404;28;20368;-73
2021/09/09 02:04:14;;;;;;;;;;;;;;;;;;8164677;28;20398;-72
2021/09/09 02:08:19;;;;;;;;;;;;;;;;;;8179511;28;20348;-72
2021/09/09 02:12:24;;;;;;;;;;;;;;;;;;8147653;28;20356;-72
2021/09/09 02:16:30;;;;;;;;;;;;;;;;;;8179265;28;19922;-72
2021/09/09 02:20:35;;;;;;;;;;;;;;;;;;8163536;28;20273;-73
2021/09/09 02:24:44;;;;;;;;;;;;;;;;;;8165695;28;20273;-72
2021/09/09 02:28:49;;;;;;;;;;;;;;;;;;8164009;28;20242;-73
2021/09/09 02:32:54;;;;;;;;;;;;;;;;;;8163175;28;20361;-74
2021/09/09 02:37:00;;;;;;;;;;;;;;;;;;8178689;28;19945;-73
2021/09/09 02:41:04;;;;;;;;;;;;;;;;;;8163803;28;20361;-72
2021/09/09 02:45:10;;;;;;;;;;;;;;;;;;8165059;28;20248;-73
2021/09/09 02:49:15;;;;;;;;;;;;;;;;;;8178525;28;20337;-73
2021/09/09 02:53:20;;;;;;;;;;;;;;;;;;8175630;28;19922;-73
2021/09/09 02:57:25;;;;;;;;;;;;;;;;;;8165133;28;20341;-73
2021/09/09 03:01:30;;;;;;;;;;;;;;;;;;8146949;28;20349;-73
2021/09/09 03:05:35;;;;;;;;;;;;;;;;;;8162453;28;19944;-73
2021/09/09 03:09:40;;;;;;;;;;;;;;;;;;8180714;28;20264;-73
2021/09/09 03:13:44;;;;;;;;;;;;;;;;;;8193767;28;20355;-73
2021/09/09 03:17:49;;;;;;;;;;;;;;;;;;8195386;28;20343;-73
2021/09/09 03:21:54;;;;;;;;;;;;;;;;;;8194711;28;19944;-72
2021/09/09 03:25:59;;;;;;;;;;;;;;;;;;8194537;28;20367;-72
2021/09/09 03:30:05;;;;;;;;;;;;;;;;;;8194916;28;20270;-73
2021/09/09 03:34:10;;;;;;;;;;;;;;;;;;8178330;28;20349;-72
2021/09/09 03:38:15;;;;;;;;;;;;;;;;;;8145718;28;19921;-73
2021/09/09 03:42:19;;;;;;;;;;;;;;;;;;8177797;28;20303;-72
2021/09/09 03:46:24;;;;;;;;;;;;;;;;;;8196442;28;19921;-72
2021/09/09 03:50:29;;;;;;;;;;;;;;;;;;8196971;28;19921;-73
2021/09/09 03:54:34;;;;;;;;;;;;;;;;;;8176781;28;19944;-73
2021/09/09 03:58:40;;;;;;;;;;;;;;;;;;8177898;28;20363;-73
2021/09/09 04:02:44;;;;;;;;;;;;;;;;;;8176810;28;20341;-73
2021/09/09 04:06:49;;;;;;;;;;;;;;;;;;8176730;28;20228;-74
2021/09/09 04:10:54;;;;;;;;;;;;;;;;;;8194186;28;20355;-72
2021/09/09 04:15:01;;;;;;;;;;;;;;;;;;8193843;28;20356;-72
2021/09/09 04:19:08;;;;;;;;;;;;;;;;;;8194075;28;20336;-73
2021/09/09 04:23:13;;;;;;;;;;;;;;;;;;8193932;28;20260;-72
2021/09/09 04:27:19;;;;;;;;;;;;;;;;;;8193914;28;20340;-72
2021/09/09 04:31:25;;;;;;;;;;;;;;;;;;8178323;28;19945;-73
2021/09/09 04:35:30;;;;;;;;;;;;;;;;;;8176269;28;19921;-73
2021/09/09 04:39:35;;;;;;;;;;;;;;;;;;8193211;28;19922;-73
2021/09/09 04:43:39;;;;;;;;;;;;;;;;;;8176927;28;20288;-73
2021/09/09 04:47:44;;;;;;;;;;;;;;;;;;8176944;28;20349;-73
2021/09/09 04:51:49;;;;;;;;;;;;;;;;;;8179679;28;20345;-73
2021/09/09 04:55:54;;;;;;;;;;;;;;;;;;8181988;28;20292;-72
2021/09/09 04:59:59;;;;;;;;;;;;;;;;;;8199957;28;20480;-72
2021/09/09 05:04:06;;;;;;;;;;;;;;;;;;8182738;28;20340;-73
2021/09/09 05:08:11;;;;;;;;;;;;;;;;;;8199338;28;20271;-73
2021/09/09 05:12:16;;;;;;;;;;;;;;;;;;8199382;28;19921;-72
2021/09/09 05:16:21;;;;;;;;;;;;;;;;;;8198806;28;20246;-73
2021/09/09 05:20:26;;;;;;;;;;;;;;;;;;8197928;28;20264;-73
2021/09/09 05:24:31;;;;;;;;;;;;;;;;;;8198816;28;20264;-73
2021/09/09 05:28:36;;;;;;;;;;;;;;;;;;8198699;28;20332;-73
2021/09/09 05:32:41;;;;;;;;;;;;;;;;;;8200289;28;19944;-73
2021/09/09 05:36:46;;;;;;;;;;;;;;;;;;8183262;28;20328;-73
2021/09/09 05:40:51;;;;;;;;;;;;;;;;;;8198587;28;20361;-73
2021/09/09 05:44:56;;;;;;;;;;;;;;;;;;8181500;28;20329;-73
2021/09/09 05:49:01;;;;;;;;;;;;;;;;;;8181019;28;20357;-72
2021/09/09 05:53:06;;;;;;;;;;;;;;;;;;8182615;28;20406;-73
2021/09/09 05:57:11;;;;;;;;;;;;;;;;;;8183411;28;20320;-72
2021/09/09 06:01:16;;;;;;;;;;;;;;;;;;8199825;28;19921;-72
2021/09/09 06:05:22;;;;;;;;;;;;;;;;;;8183674;28;20356;-72
2021/09/09 06:09:27;;;;;;;;;;;;;;;;;;8180785;28;19925;-73
2021/09/09 06:13:32;;;;;;;;;;;;;;;;;;8196252;28;20367;-72
2021/09/09 06:17:37;;;;;;;;;;;;;;;;;;8180397;28;20247;-72
2021/09/09 06:21:42;;;;;;;;;;;;;;;;;;8180558;28;20249;-72
2021/09/09 06:25:46;;;;;;;;;;;;;;;;;;8197167;28;20303;-72
2021/09/09 06:29:51;;;;;;;;;;;;;;;;;;8163396;28;20373;-72
2021/09/09 06:33:56;;;;;;;;;;;;;;;;;;8181119;28;20300;-72
2021/09/09 06:38:01;;;;;;;;;;;;;;;;;;8163525;28;20332;-71
2021/09/09 06:42:06;;;;;;;;;;;;;;;;;;8198122;28;20375;-72
2021/09/09 06:46:11;;;;;;;;;;;;;;;;;;8179832;28;20332;-73
2021/09/09 06:50:16;;;;;;;;;;;;;;;;;;8195769;28;20256;-72
2021/09/09 06:54:21;;;;;;;;;;;;;;;;;;8197836;28;19925;-73
2021/09/09 06:58:26;;;;;;;;;;;;;;;;;;8181904;28;20283;-72
2021/09/09 07:02:31;;;;;;;;;;;;;;;;;;8198944;28;20489;-72
2021/09/09 07:06:36;;;;;;;;;;;;;;;;;;8198903;28;20273;-71
2021/09/09 07:10:41;;;;;;;;;;;;;;;;;;8178763;28;19943;-71
2021/09/09 07:14:49;;;;;;;;;;;;;;;;;;8195573;28;19925;-72
2021/09/09 07:18:54;;;;;;;;;;;;;;;;;;8196596;28;20264;-71
2021/09/09 07:23:00;;;;;;;;;;;;;;;;;;8180422;28;20476;-71
2021/09/09 07:27:05;;;;;;;;;;;;;;;;;;8163409;28;20370;-71
2021/09/09 07:31:10;;;;;;;;;;;;;;;;;;8196163;28;19921;-71
2021/09/09 07:35:16;;;;;;;;;;;;;;;;;;8179523;28;19921;-72
2021/09/09 07:39:21;;;;;;;;;;;;;;;;;;8196345;28;20245;-72
2021/09/09 07:43:26;;;;;;;;;;;;;;;;;;8179104;28;20296;-71
2021/09/09 07:47:32;;;;;;;;;;;;;;;;;;8198482;28;20348;-72
2021/09/09 07:51:37;;;;;;;;;;;;;;;;;;8196481;28;20317;-71
2021/09/09 07:55:42;;;;;;;;;;;;;;;;;;7498198;28;20003902;-72
2021/09/09 07:59:47;;;;;;;;;;;;;;;;;;8179478;28;19925;-72
2021/09/09 08:03:52;;;;;;;;;;;;;;;;;;8195792;28;20260;-73
2021/09/09 08:07:57;;;;;;;;;;;;;;;;;;8180004;28;19948;-71
2021/09/09 08:13:07;;;;;;;;;;;;;;;;;;8251165;28;2040562;-75
2021/09/09 08:17:14;;;;;;;;;;;;;;;;;;8322438;28;19928;-71
2021/09/09 08:21:18;;;;;;;;;;;;;;;;;;8321970;28;20248;-72
2021/09/09 08:25:24;;;;;;;;;;;;;;;;;;8321168;28;20373;-71
2021/09/09 08:29:29;;;;;;;;;;;;;;;;;;8323578;28;19950;-72
2021/09/09 08:33:34;;;;;;;;;;;;;;;;;;8321545;28;20352;-72
2021/09/09 08:37:39;;;;;;;;;;;;;;;;;;8303989;28;20300;-71
2021/09/09 08:41:43;;;;;;;;;;;;;;;;;;8322181;28;20240;-71
2021/09/09 08:45:51;;;;;;;;;;;;;;;;;;8287600;28;19932;-72
2021/09/09 08:49:56;;;;;;;;;;;;;;;;;;8322851;28;20301;-71
2021/09/09 08:54:02;;;;;;;;;;;;;;;;;;8323313;28;20275;-72
2021/09/09 08:58:07;;;;;;;;;;;;;;;;;;8302774;28;20533;-72
2021/09/09 09:02:13;;;;;;;;;;;;;;;;;;8320083;28;20263;-72
2021/09/09 09:06:24;;;;;;;;;;;;;;;;;;8301394;28;19947;-72
2021/09/09 09:10:31;;;;;;;;;;;;;;;;;;8326251;28;20277;-71
2021/09/09 09:14:36;;;;;;;;;;;;;;;;;;8345281;28;20274;-72
2021/09/09 09:18:45;;;;;;;;;;;;;;;;;;8346917;28;20377;-72
2021/09/09 09:22:49;;;;;;;;;;;;;;;;;;8337021;28;19946;-71
2021/09/09 09:27:10;;;;;;;;;;;;;;;;;;8328706;28;19927;-71
2021/09/09 09:31:17;;;;;;;;;;;;;;;;;;8328261;28;20374;-71
2021/09/09 09:35:22;;;;;;;;;;;;;;;;;;8328074;28;19950;-72
2021/09/09 09:39:27;;;;;;;;;;;;;;;;;;8327136;28;20369;-73
2021/09/09 09:43:34;;;;;;;;;;;;;;;;;;8326747;28;19946;-72
2021/09/09 09:47:37;;;;;;;;;;;;;;;;;;8326633;28;20350;-72
2021/09/09 09:51:43;;;;;;;;;;;;;;;;;;8310445;28;20270;-71
2021/09/09 09:55:50;;;;;;;;;;;;;;;;;;8326734;28;20370;-72
2021/09/09 09:59:55;;;;;;;;;;;;;;;;;;8328559;28;19924;-71
2021/09/09 10:04:02;;;;;;;;;;;;;;;;;;8328174;28;20381;-71
2021/09/09 10:08:16;;;;;;;;;;;;;;;;;;8311283;28;20414;-72
2021/09/09 10:12:25;;;;;;;;;;;;;;;;;;8328832;28;20249;-72
2021/09/09 10:16:32;;;;;;;;;;;;;;;;;;8327754;28;20244;-72
2021/09/09 10:20:42;;;;;;;;;;;;;;;;;;8326935;28;19928;-71
2021/09/09 10:24:48;;;;;;;;;;;;;;;;;;8311608;28;20254;-72
2021/09/09 10:28:55;;;;;;;;;;;;;;;;;;8328908;28;19924;-71
2021/09/09 10:33:00;;;;;;;;;;;;;;;;;;8326356;28;20560;-71
2021/09/09 10:37:05;;;;;;;;;;;;;;;;;;8325441;28;20351;-71
2021/09/09 10:41:27;;;;;;;;;;;;;;;;;;8326013;28;20337;-71
2021/09/09 10:45:34;;;;;;;;;;;;;;;;;;8312875;28;20384;-71
2021/09/09 10:49:40;;;;;;;;;;;;;;;;;;8328682;28;20515;-72
2021/09/09 10:54:10;;;;;;;;;;;;;;;;;;8328242;28;19924;-72
2021/09/09 10:58:22;;;;;;;;;;;;;;;;;;8329169;28;20361;-72
2021/09/09 11:02:27;;;;;;;;;;;;;;;;;;8325847;28;20389;-72
2021/09/09 11:06:34;;;;;;;;;;;;;;;;;;8324991;28;20246;-71
2021/09/09 11:10:39;;;;;;;;;;;;;;;;;;8327934;28;20278;-71
2021/09/09 11:14:44;;;;;;;;;;;;;;;;;;8327773;28;20263;-72
2021/09/09 11:18:50;;;;;;;;;;;;;;;;;;8324111;28;20362;-71
2021/09/09 11:23:07;;;;;;;;;;;;;;;;;;8306227;28;20363;-71
2021/09/09 11:27:14;;;;;;;;;;;;;;;;;;8324838;28;20501;-72
2021/09/09 11:31:21;;;;;;;;;;;;;;;;;;8322560;28;20370;-72
2021/09/09 11:35:27;;;;;;;;;;;;;;;;;;8323517;28;20308;-72
2021/09/09 11:39:34;;;;;;;;;;;;;;;;;;8307115;28;20240;-71
2021/09/09 11:43:40;;;;;;;;;;;;;;;;;;8324573;28;20254;-72
2021/09/09 11:47:45;;;;;;;;;;;;;;;;;;8324132;28;19924;-71
2021/09/09 11:51:50;;;;;;;;;;;;;;;;;;8326667;28;19924;-72
2021/09/09 11:55:55;;;;;;;;;;;;;;;;;;8323129;28;20277;-71
2021/09/09 12:00:00;;;;;;;;;;;;;;;;;;8326530;28;20338;-71
2021/09/09 12:04:06;;;;;;;;;;;;;;;;;;8324041;28;20308;-72
2021/09/09 12:08:11;;;;;;;;;;;;;;;;;;8323158;28;20366;-72
2021/09/09 12:12:16;;;;;;;;;;;;;;;;;;8323615;28;20335;-71
2021/09/09 12:16:24;;;;;;;;;;;;;;;;;;8326082;28;20346;-71
2021/09/09 12:20:28;;;;;;;;;;;;;;;;;;8325018;28;20267;-72
2021/09/09 12:24:33;;;;;;;;;;;;;;;;;;8326023;28;20354;-71
2021/09/09 12:28:40;;;;;;;;;;;;;;;;;;8325910;28;20243;-71
2021/09/09 12:32:44;;;;;;;;;;;;;;;;;;8324588;28;20357;-72
2021/09/09 12:36:51;;;;;;;;;;;;;;;;;;8325291;28;20347;-71
2021/09/09 12:40:56;;;;;;;;;;;;;;;;;;8324613;28;20240;-72
2021/09/09 12:45:02;;;;;;;;;;;;;;;;;;8324478;28;20254;-71
2021/09/09 12:49:12;;;;;;;;;;;;;;;;;;8323929;28;20262;-71
2021/09/09 12:53:17;;;;;;;;;;;;;;;;;;8322569;28;20309;-71
2021/09/09 12:57:31;;;;;;;;;;;;;;;;;;8327378;28;20388;-71
2021/09/09 13:01:35;;;;;;;;;;;;;;;;;;8331507;28;20259;-71
2021/09/09 13:05:43;;;;;;;;;;;;;;;;;;8330867;28;20354;-71
2021/09/09 13:09:48;;;;;;;;;;;;;;;;;;8330227;28;19947;-73
2021/09/09 13:13:52;;;;;;;;;;;;;;;;;;8330757;28;20217;-72
2021/09/09 13:17:57;;;;;;;;;;;;;;;;;;8330763;28;19924;-71
2021/09/09 13:22:01;;;;;;;;;;;;;;;;;;8329176;28;19924;-72
2021/09/09 13:26:07;;;;;;;;;;;;;;;;;;8326991;28;19924;-71
2021/09/09 13:30:12;;;;;;;;;;;;;;;;;;8327279;28;20354;-72
2021/09/09 13:34:17;;;;;;;;;;;;;;;;;;8328568;28;20319;-72
2021/09/09 13:38:22;;;;;;;;;;;;;;;;;;8328344;28;19936;-71
2021/09/09 13:42:27;;;;;;;;;;;;;;;;;;8326044;28;20241;-72
2021/09/09 13:46:32;;;;;;;;;;;;;;;;;;8327256;28;19994;-72
2021/09/09 13:50:37;;;;;;;;;;;;;;;;;;8327812;28;19946;-71
2021/09/09 13:54:45;;;;;;;;;;;;;;;;;;8326315;28;20274;-71
2021/09/09 13:58:55;;;;;;;;;;;;;;;;;;8310242;28;20403;-72
2021/09/09 14:03:00;;;;;;;;;;;;;;;;;;8326786;28;20331;-72
2021/09/09 14:07:14;;;;;;;;;;;;;;;;;;8325628;28;20274;-72
2021/09/09 14:11:20;;;;;;;;;;;;;;;;;;8326757;28;20335;-71
2021/09/09 14:15:25;;;;;;;;;;;;;;;;;;8328047;28;20261;-71
2021/09/09 14:19:30;;;;;;;;;;;;;;;;;;8308779;28;20236;-73
2021/09/09 14:23:35;;;;;;;;;;;;;;;;;;8326569;28;20361;-71
2021/09/09 14:27:40;;;;;;;;;;;;;;;;;;8326465;28;20339;-72
2021/09/09 14:31:46;;;;;;;;;;;;;;;;;;8308120;28;20396;-71
2021/09/09 14:35:51;;;;;;;;;;;;;;;;;;8308807;28;19924;-72
2021/09/09 14:39:56;;;;;;;;;;;;;;;;;;8325796;28;19932;-72
2021/09/09 14:44:01;;;;;;;;;;;;;;;;;;8324969;28;19928;-71
2021/09/09 14:48:06;;;;;;;;;;;;;;;;;;8325601;28;20351;-72
2021/09/09 14:52:11;;;;;;;;;;;;;;;;;;8309530;28;20347;-71
2021/09/09 14:56:24;;;;;;;;;;;;;;;;;;8325551;28;20350;-71
2021/09/09 15:00:30;;;;;;;;;;;;;;;;;;8324780;28;19928;-71
2021/09/09 15:04:34;;;;;;;;;;;;;;;;;;8325528;28;20273;-71
2021/09/09 15:08:39;;;;;;;;;;;;;;;;;;8323390;28;19946;-71
2021/09/09 15:12:44;;;;;;;;;;;;;;;;;;8324821;28;20354;-72
2021/09/09 15:16:49;;;;;;;;;;;;;;;;;;8307592;28;20355;-72
2021/09/09 15:20:54;;;;;;;;;;;;;;;;;;8325617;28;20266;-72
2021/09/09 15:24:59;;;;;;;;;;;;;;;;;;8323534;28;20326;-71
2021/09/09 15:29:04;;;;;;;;;;;;;;;;;;8282340;28;20299;-72
2021/09/09 15:33:08;;;;;;;;;;;;;;;;;;8256891;28;20332;-71
2021/09/09 15:37:12;;;;;;;;;;;;;;;;;;8258981;28;20243;-72
2021/09/09 15:41:16;;;;;;;;;;;;;;;;;;8257129;28;20340;-72
2021/09/09 15:45:25;;;;;;;;;;;;;;;;;;8258964;28;20252;-71
2021/09/09 15:49:28;;;;;;;;;;;;;;;;;;8257283;28;19946;-71
2021/09/09 15:53:35;;;;;;;;;;;;;;;;;;8275717;28;20377;-71
2021/09/09 15:57:49;;;;;;;;;;;;;;;;;;8303826;28;20251;-71
2021/09/09 16:01:54;;;;;;;;;;;;;;;;;;8306518;28;20270;-71
2021/09/09 16:05:58;;;;;;;;;;;;;;;;;;8303768;28;20252;-71
2021/09/09 16:10:02;;;;;;;;;;;;;;;;;;8305451;28;20332;-72
2021/09/09 16:14:06;;;;;;;;;;;;;;;;;;8305073;28;20497;-71
2021/09/09 16:18:12;;;;;;;;;;;;;;;;;;8300852;28;20041;-71
2021/09/09 16:22:18;;;;;;;;;;;;;;;;;;8311476;28;20240;-71
2021/09/09 16:26:23;;;;;;;;;;;;;;;;;;8304974;28;20259;-71
2021/09/09 16:30:28;;;;;;;;;;;;;;;;;;8320932;28;20327;-71
2021/09/09 16:34:32;;;;;;;;;;;;;;;;;;8270252;28;20018;-71
2021/09/09 16:38:38;;;;;;;;;;;;;;;;;;8260834;28;19928;-71
2021/09/09 16:42:43;;;;;;;;;;;;;;;;;;8264870;28;20244;-71
2021/09/09 16:46:48;;;;;;;;;;;;;;;;;;8265693;28;20260;-72
2021/09/09 16:50:53;;;;;;;;;;;;;;;;;;8278180;28;20279;-71
2021/09/09 16:54:58;;;;;;;;;;;;;;;;;;8311678;28;20343;-71
2021/09/09 16:59:11;;;;;;;;;;;;;;;;;;8303237;28;20352;-72
2021/09/09 17:03:16;;;;;;;;;;;;;;;;;;8309519;28;20282;-71
2021/09/09 17:07:21;;;;;;;;;;;;;;;;;;8310850;28;20282;-71
2021/09/09 17:11:24;;;;;;;;;;;;;;;;;;8298123;28;20385;-71
2021/09/09 17:15:28;;;;;;;;;;;;;;;;;;8327351;28;20289;-71
2021/09/09 17:19:31;;;;;;;;;;;;;;;;;;8328681;28;20254;-71
2021/09/09 17:23:35;;;;;;;;;;;;;;;;;;8328276;28;20527;-71
2021/09/09 17:27:40;;;;;;;;;;;;;;;;;;8311603;28;20532;-70
2021/09/09 17:31:45;;;;;;;;;;;;;;;;;;8328195;28;20247;-71
2021/09/09 17:35:51;;;;;;;;;;;;;;;;;;8309358;28;20531;-71
2021/09/09 17:42:33;;;;;;;;;;;;;;;;;;8170676;28;20283;-73
2021/09/09 17:46:38;;;;;;;;;;;;;;;;;;8136215;28;20424;-71
2021/09/09 17:50:43;;;;;;;;;;;;;;;;;;8183104;28;20383;-72
2021/09/09 17:54:50;;;;;;;;;;;;;;;;;;8168951;28;19926;-71
2021/09/09 17:58:57;;;;;;;;;;;;;;;;;;8185125;28;19929;-71
2021/09/09 18:03:02;;;;;;;;;;;;;;;;;;8186872;28;20285;-71
2021/09/09 18:07:07;;;;;;;;;;;;;;;;;;8187967;28;20352;-71
2021/09/09 18:11:12;;;;;;;;;;;;;;;;;;8188232;28;20357;-72
2021/09/09 18:15:17;;;;;;;;;;;;;;;;;;8188891;28;20333;-71
2021/09/09 18:19:22;;;;;;;;;;;;;;;;;;8188171;28;20252;-71
2021/09/09 18:23:27;;;;;;;;;;;;;;;;;;8188559;28;20352;-71
2021/09/09 18:27:32;;;;;;;;;;;;;;;;;;8188296;28;20365;-71
2021/09/09 18:31:37;;;;;;;;;;;;;;;;;;8170884;28;20375;-71
2021/09/09 18:35:42;;;;;;;;;;;;;;;;;;8187668;28;19926;-71
2021/09/09 18:39:47;;;;;;;;;;;;;;;;;;8196749;28;19952;-71
2021/09/09 18:43:52;;;;;;;;;;;;;;;;;;8219440;28;19925;-71
2021/09/09 18:47:58;;;;;;;;;;;;;;;;;;8220875;28;20349;-71
2021/09/09 18:52:03;;;;;;;;;;;;;;;;;;8207776;28;20288;-72
2021/09/09 18:56:08;;;;;;;;;;;;;;;;;;8197638;28;19929;-72
2021/09/09 19:00:13;;;;;;;;;;;;;;;;;;8198880;28;20332;-70
2021/09/09 19:04:18;;;;;;;;;;;;;;;;;;8197490;28;19929;-72
2021/09/09 19:08:24;;;;;;;;;;;;;;;;;;8182533;28;20333;-71
2021/09/09 19:12:31;;;;;;;;;;;;;;;;;;8194800;28;20292;-71
2021/09/09 19:16:37;;;;;;;;;;;;;;;;;;8195286;28;20264;-71
2021/09/09 19:20:44;;;;;;;;;;;;;;;;;;8196315;28;20367;-71
2021/09/09 19:24:49;;;;;;;;;;;;;;;;;;8197077;28;20330;-71
2021/09/09 19:28:54;;;;;;;;;;;;;;;;;;8196965;28;19929;-71
2021/09/09 19:33:00;;;;;;;;;;;;;;;;;;8197440;28;20307;-71
2021/09/09 19:37:05;;;;;;;;;;;;;;;;;;8197247;28;20268;-72
2021/09/09 19:41:10;;;;;;;;;;;;;;;;;;8195886;28;20304;-71
2021/09/09 19:45:15;;;;;;;;;;;;;;;;;;8195601;28;20000;-71
2021/09/09 19:49:20;;;;;;;;;;;;;;;;;;8179503;28;20261;-71
2021/09/09 19:53:25;;;;;;;;;;;;;;;;;;8197844;28;20253;-71
2021/09/09 19:57:30;;;;;;;;;;;;;;;;;;8195948;28;20283;-71
2021/09/09 20:01:35;;;;;;;;;;;;;;;;;;8195115;28;20364;-70
2021/09/09 20:05:40;;;;;;;;;;;;;;;;;;8195313;28;20361;-71
2021/09/09 20:09:45;;;;;;;;;;;;;;;;;;8196003;28;20253;-72
2021/09/09 20:13:50;;;;;;;;;;;;;;;;;;8194889;28;20379;-71
2021/09/09 20:17:56;;;;;;;;;;;;;;;;;;8195336;28;19925;-72
2021/09/09 20:22:01;;;;;;;;;;;;;;;;;;8194136;28;19926;-71
2021/09/09 20:26:08;;;;;;;;;;;;;;;;;;8195494;28;20260;-71
2021/09/09 20:30:12;;;;;;;;;;;;;;;;;;8194578;28;19929;-71
2021/09/09 20:34:18;;;;;;;;;;;;;;;;;;8194668;28;19925;-71
2021/09/09 20:38:23;;;;;;;;;;;;;;;;;;8192728;28;20250;-71
2021/09/09 20:42:28;;;;;;;;;;;;;;;;;;8193554;28;20248;-71
2021/09/09 20:46:32;;;;;;;;;;;;;;;;;;8195110;28;20258;-71
2021/09/09 20:50:38;;;;;;;;;;;;;;;;;;8194331;28;20356;-71
2021/09/09 20:54:43;;;;;;;;;;;;;;;;;;8193716;28;20025;-72
2021/09/09 20:58:48;;;;;;;;;;;;;;;;;;8176735;28;20328;-71
2021/09/09 21:02:54;;;;;;;;;;;;;;;;;;8194407;28;20272;-71
2021/09/09 21:06:59;;;;;;;;;;;;;;;;;;8193141;28;20333;-73
2021/09/09 21:11:04;;;;;;;;;;;;;;;;;;8193119;28;20237;-71
2021/09/09 21:15:10;;;;;;;;;;;;;;;;;;8176840;28;20252;-71
2021/09/09 21:19:15;;;;;;;;;;;;;;;;;;8192289;28;19926;-71
2021/09/09 21:23:20;;;;;;;;;;;;;;;;;;8192634;28;20392;-72
2021/09/09 21:27:25;;;;;;;;;;;;;;;;;;8176777;28;19929;-71
2021/09/09 21:31:32;;;;;;;;;;;;;;;;;;8179329;28;20229;-71
2021/09/09 21:35:37;;;;;;;;;;;;;;;;;;8161426;28;20313;-71
2021/09/09 21:39:42;;;;;;;;;;;;;;;;;;8159298;28;20282;-72
2021/09/09 21:43:48;;;;;;;;;;;;;;;;;;8160322;28;20284;-72
2021/09/09 21:47:53;;;;;;;;;;;;;;;;;;8161186;28;20249;-71
2021/09/09 21:51:58;;;;;;;;;;;;;;;;;;8159680;28;20372;-71
2021/09/09 21:56:03;;;;;;;;;;;;;;;;;;8160185;28;19930;-72
2021/09/09 22:00:13;;;;;;;;;;;;;;;;;;8158536;28;20226;-71
2021/09/09 22:04:18;;;;;;;;;;;;;;;;;;8161579;28;20338;-71
2021/09/09 22:08:23;;;;;;;;;;;;;;;;;;8162804;28;20400;-71
2021/09/09 22:12:28;;;;;;;;;;;;;;;;;;8161894;28;20337;-72
2021/09/09 22:16:33;;;;;;;;;;;;;;;;;;8159057;28;20290;-71
2021/09/09 22:20:41;;;;;;;;;;;;;;;;;;8162199;28;20264;-72
2021/09/09 22:24:45;;;;;;;;;;;;;;;;;;8159221;28;20354;-72
2021/09/09 22:28:51;;;;;;;;;;;;;;;;;;8165063;28;19948;-71
2021/09/09 22:32:56;;;;;;;;;;;;;;;;;;8164148;28;19948;-72
2021/09/09 22:37:01;;;;;;;;;;;;;;;;;;8165058;28;20249;-71
2021/09/09 22:41:07;;;;;;;;;;;;;;;;;;8164735;28;20292;-72
2021/09/09 22:45:12;;;;;;;;;;;;;;;;;;8164865;28;20333;-71
2021/09/09 22:49:17;;;;;;;;;;;;;;;;;;8164568;28;20242;-71
2021/09/09 22:53:22;;;;;;;;;;;;;;;;;;8164102;28;20314;-72
2021/09/09 22:57:27;;;;;;;;;;;;;;;;;;8164429;28;20276;-72
2021/09/09 23:01:32;;;;;;;;;;;;;;;;;;8163824;28;20384;-72
2021/09/09 23:05:37;;;;;;;;;;;;;;;;;;8164987;28;20376;-72
2021/09/09 23:09:42;;;;;;;;;;;;;;;;;;8162968;28;19926;-72
2021/09/09 23:13:47;;;;;;;;;;;;;;;;;;8165126;28;20397;-72
2021/09/09 23:17:52;;;;;;;;;;;;;;;;;;8148987;28;19948;-72
2021/09/09 23:21:57;;;;;;;;;;;;;;;;;;8163852;28;20249;-72
2021/09/09 23:26:02;;;;;;;;;;;;;;;;;;8164142;28;20326;-72
2021/09/09 23:30:07;;;;;;;;;;;;;;;;;;8164737;28;20361;-72
2021/09/09 23:34:12;;;;;;;;;;;;;;;;;;8148294;28;20369;-74
2021/09/09 23:38:17;;;;;;;;;;;;;;;;;;8147595;28;20325;-71
2021/09/09 23:42:22;;;;;;;;;;;;;;;;;;8146623;28;19926;-71
2021/09/09 23:46:28;;;;;;;;;;;;;;;;;;8163811;28;20230;-72
2021/09/09 23:50:33;;;;;;;;;;;;;;;;;;8162690;28;21323;-72
2021/09/09 23:54:37;;;;;;;;;;;;;;;;;;8164000;28;19929;-72
2021/09/09 23:58:44;;;;;;;;;;;;;;;;;;8161985;28;20238;-72
